Terminal Aerodrome Forecast
Issued by NWS

Home | Current Version | Previous Version | Text Only | Print | Product List | Glossary On
Versions: 1 2 3 4 5 6 7 8 9 10 11 12
000
FTUS45 KABQ 292340
TAFFMN
TAF
KFMN 292340Z 3000/3024 23008KT P6SM FEW110
     FM300130 VRB06KT P6SM FEW120
     FM300700 07009KT P6SM FEW120
     FM301300 11006KT P6SM SCT120
     FM302000 23009KT P6SM SCT090=

USA.gov is the U.S. government's official web portal to all federal, state and local government web resources and services.